Аэропорт: Орск. Орск

ICAO: UWOR

METAR:
2024-04-22 22:00:00
UWOR 222200Z 33002MPS CAVOK 10/10 Q1020 R07/CLRD60 NOSIG RMK QFE740/0987
TAF:
2024-04-22 19:43:00
TAF UWOR 221943Z 2221/2306 11006G13MPS 9999 SCT030 TX20/2305Z TN13/2301Z 
  TEMPO 2221/2306 09003G09MPS